Meteo Giornale » Osservazioni meteo Stati Uniti (USA) » Cedar City
ore: 13:27 - Osservazioni Meteo Cedar City
Lat. 37° 42' N Lon. 113° 5' W Alt. 1715 metri s.l.m.
21 °C
Pioggia
Temp. 24 Ore
14 °C
29 °C
Sud
18.5 Km/h
Dew point 11 °C
Umidità 52 %
Visibilità 10 Km
Il sole sorge alle ore 07:01
Il sole tramonta alle ore 20:03
| Data e Ora | Cielo e Fenomeni | T °C | DP °C | Um. % | Pres. hPa | Vis. km | Vento km/h | |
|---|---|---|---|---|---|---|---|---|
| Oggi h: 13:27 | Pioggia | 21 | 11 | 52 | 1020 | 10 | S 18.5 | |
| Oggi h: 12:53 | Poco Nuvoloso | 24 | 7 | 33 | 1021 | 10 | S 24 | |
| Oggi h: 11:53 | Nuvoloso | 26 | 11 | 39 | 1021 | 10 | S 25.9 | |
| Oggi h: 10:53 | Sereno | 25 | 11 | 41 | 1021 | 10 | SO 25.9 | |
| Oggi h: 09:53 | Sereno | 24 | 10 | 41 | 1021 | 10 | S/SO 24 | |
| Oggi h: 08:53 | Sereno | 22 | 7 | 37 | 1021 | 10 | N 0 | |
| Oggi h: 07:53 | Nuvoloso | 17 | 8 | 55 | 1020 | 10 | N 0 | |
| Oggi h: 06:53 | Sereno | 16 | 6 | 51 | 1020 | 10 | N 5.5 | |
| Oggi h: 05:53 | Poco Nuvoloso | 17 | 6 | 48 | 1020 | 10 | N 0 | |
| Oggi h: 04:53 | Nuvoloso | 19 | 7 | 45 | 1020 | 10 | E/SE 9.3 | |
| Oggi h: 03:53 | Sereno | 19 | 6 | 42 | 1020 | 10 | SE 7.4 | |
| Oggi h: 02:53 | Sereno | 14 | 7 | 62 | 1019 | 10 | N 0 | |
| Oggi h: 01:53 | Sereno | 18 | 7 | 48 | 1019 | 10 | E/SE 9.3 | |
| Oggi h: 00:53 | Sereno | 18 | 6 | 45 | 1019 | 10 | N 0 | |
| Ieri h: 23:53 | Sereno | 18 | 6 | 45 | 1019 | 10 | N 0 | |
| Ieri h: 22:53 | Sereno | 19 | 6 | 42 | 1020 | 10 | NO 7.4 | |
| Ieri h: 21:53 | Sereno | 22 | 5 | 32 | 1019 | 10 | SO 7.4 | |
| Ieri h: 20:53 | Sereno | 22 | 4 | 30 | 1019 | 10 | N 5.5 | |
| Ieri h: 19:53 | Sereno | 25 | 6 | 29 | 1018 | 10 | SO 13 | |
| Ieri h: 18:53 | Sereno | 27 | 6 | 26 | 1018 | 10 | S/SO 20.3 | |
| Ieri h: 17:53 | Nuvoloso | 27 | 6 | 26 | 1018 | 10 | S/SO 29.6 | |
| Ieri h: 16:53 | Molto Nuvoloso | 29 | 6 | 23 | 1018 | 10 | S/SO 35.2 | |
| Ieri h: 15:53 | Sereno | 29 | 6 | 23 | 1018 | 10 | S/SO 40.7 | |
| Ieri h: 14:53 | Nuvoloso | 29 | 7 | 25 | 1019 | 10 | SO 37 | |
| Ieri h: 13:53 | Sereno | 29 | 7 | 25 | 1019 | 10 | S/SO 33.3 | |



